CST,Max TemperatureF,Mean TemperatureF,Min TemperatureF,Max Dew PointF,MeanDew PointF,Min DewpointF,Max Humidity, Mean Humidity, Min Humidity, Max Sea Level PressureIn, Mean Sea Level PressureIn, Min Sea Level PressureIn, Max VisibilityMiles, Mean VisibilityMiles, Min VisibilityMiles, Max Wind SpeedMPH, Mean Wind SpeedMPH, Max Gust SpeedMPH,PrecipitationIn, CloudCover, Events, WindDirDegrees
2014-2-1,26,19,12,21,15,5,93,79,67,30.32,30.07,29.92,10,9,2,17,8,22,0.00,6,Rain-Snow,3
2014-2-2,21,8,-4,10,2,-8,85,75,58,30.42,30.34,30.29,10,10,10,12,5,,0.00,0,,165
2014-2-3,26,14,3,14,7,-4,85,70,59,30.32,30.28,30.22,10,10,10,12,4,,0.00,4,,148
2014-2-4,24,15,6,21,15,1,93,84,63,30.36,30.26,30.18,10,5,0,23,12,31,0.00,7,Rain-Snow,42
2014-2-5,10,0,-9,0,-5,-15,84,70,57,30.67,30.57,30.36,10,9,2,23,16,32,0.00,5,Rain-Snow,338
2014-2-6,8,-2,-11,-4,-9,-15,84,70,56,30.65,30.56,30.44,10,10,10,12,6,16,0.00,3,,254
2014-2-7,14,4,-7,7,-2,-11,85,68,45,30.44,30.32,30.20,10,10,9,15,5,17,0.00,7,Snow,193
2014-2-8,26,20,14,19,15,7,93,82,73,30.21,30.11,30.04,10,8,2,16,8,20,0.00,8,Rain-Snow,201
2014-2-9,21,12,3,18,4,-4,86,71,62,30.47,30.35,30.22,10,10,4,15,8,18,0.00,6,Snow,3
2014-2-10,10,0,-11,-2,-7,-17,85,71,57,30.55,30.50,30.46,10,10,5,8,2,,0.00,2,,10
2014-2-11,17,6,-5,7,-1,-11,84,67,58,30.50,30.36,30.17,10,10,10,21,7,21,0.00,6,,157
2014-2-12,28,21,14,21,14,3,93,75,62,30.16,30.05,29.92,10,9,4,14,8,18,0.00,6,Rain-Snow,174
2014-2-13,51,37,23,32,26,21,93,71,44,29.91,29.77,29.71,10,9,5,18,10,22,0.00,2,,233
2014-2-14,30,22,14,25,17,10,93,78,55,30.12,29.94,29.62,10,10,1,18,10,28,0.00,5,Snow,3
2014-2-15,44,30,15,32,22,10,86,74,57,30.09,29.96,29.82,10,10,6,18,8,24,0.00,4,,192
2014-2-16,33,30,26,28,25,23,93,83,75,30.20,30.08,29.89,10,10,8,17,9,23,0.00,6,,84
2014-2-17,53,40,28,36,28,23,100,69,30,29.95,29.90,29.78,10,9,2,22,9,31,0.00,2,Snow,266
2014-2-18,66,50,35,34,28,25,70,50,24,29.95,29.76,29.63,10,10,10,20,10,29,0.00,0,,246
2014-2-19,46,34,23,36,30,21,93,72,53,29.98,29.85,29.60,10,10,6,25,7,33,0.00,2,,162
2014-2-20,41,34,28,37,31,18,100,83,60,29.76,29.58,29.38,10,9,0,33,13,41,0.00,7,Rain-Snow,334
2014-2-21,48,36,24,32,24,16,93,69,43,29.90,29.83,29.77,10,10,10,18,11,33,0.00,1,,252
2014-2-22,41,34,26,30,24,18,100,74,56,30.21,30.02,29.90,10,10,10,18,6,25,0.00,5,,39
2014-2-23,30,24,19,19,14,7,86,63,43,30.38,30.32,30.21,10,10,10,14,8,18,0.00,5,,13
2014-2-24,26,24,23,21,19,14,93,80,64,30.40,30.32,30.23,10,10,4,12,4,15,0.00,8,Snow,72
2014-2-25,23,16,10,21,6,-2,93,70,53,30.51,30.42,30.31,10,10,3,20,11,26,0.00,6,Snow,352
2014-2-26,32,16,1,18,6,-4,85,62,44,30.50,30.18,29.93,10,10,10,24,9,32,0.00,0,,261
2014-2-27,24,14,5,14,-1,-11,73,52,25,30.23,30.09,29.93,10,10,10,17,10,21,0.00,2,,52
2014-2-28,48,32,15,25,13,0,93,57,34,30.14,29.90,29.80,10,10,1,20,12,25,0.00,4,Rain-Snow,103